ADDS METAR Data INFO
IDs: Format: Raw Decoded Include TAF

Data at: 0754 UTC 17 Oct 2017

KUOX 170735Z AUTO 05005KT 10SM CLR 09/05 A3030 RMK AO2
KUOX 170715Z AUTO 06007KT 10SM CLR 09/05 A3030 RMK AO2
KUOX 170655Z AUTO 06006KT 10SM CLR 09/05 A3030 RMK AO2
KUOX 170635Z AUTO 06006KT 10SM CLR 09/05 A3030 RMK AO2
KUOX 170615Z AUTO 06007KT 10SM CLR 09/05 A3030 RMK AO2
KUOX 170555Z AUTO 06007KT 10SM CLR 09/05 A3029 RMK AO2
KUOX 170535Z AUTO 06007KT 10SM CLR 09/05 A3030 RMK AO2
KUOX 170515Z AUTO 05005KT 10SM CLR 08/05 A3030 RMK AO2
KUOX 170455Z AUTO 00000KT 10SM CLR 08/06 A3031 RMK AO2
KUOX 170435Z AUTO 06005KT 10SM CLR 09/06 A3031 RMK AO2
KUOX 170415Z AUTO 06004KT 10SM CLR 09/06 A3031 RMK AO2
KUOX 170355Z AUTO 05006KT 10SM CLR 09/06 A3030 RMK AO2
KUOX 170335Z AUTO 04006KT 10SM CLR 09/06 A3031 RMK AO2
KUOX 170315Z AUTO 04006KT 10SM CLR 10/06 A3031 RMK AO2
KUOX 170255Z AUTO 06005KT 10SM CLR 10/06 A3030 RMK AO2
KUOX 170235Z AUTO 05007KT 10SM CLR 10/06 A3030 RMK AO2
KUOX 170215Z AUTO 06004KT 10SM CLR 10/06 A3030 RMK AO2
KUOX 170155Z AUTO 05004KT 10SM CLR 10/06 A3029 RMK AO2
KUOX 170135Z AUTO 04004KT 10SM CLR 11/06 A3029 RMK AO2
KUOX 170115Z AUTO VRB03KT 10SM CLR 11/06 A3029 RMK AO2
KUOX 170055Z AUTO VRB05KT 10SM CLR 12/06 A3028 RMK AO2
KUOX 170035Z AUTO 03004KT 10SM CLR 12/06 A3028 RMK AO2
KUOX 170015Z AUTO 36006KT 10SM CLR 13/06 A3027 RMK AO2
KUOX 162355Z AUTO 36005KT 10SM CLR 13/06 A3027 RMK AO2
KUOX 162335Z AUTO 35004KT 10SM CLR 14/06 A3027 RMK AO2
KUOX 162315Z AUTO 36005KT 10SM CLR 15/05 A3027 RMK AO2
KUOX 162255Z AUTO 01007KT 10SM CLR 16/05 A3027 RMK AO2
KUOX 162235Z AUTO 36008KT 10SM CLR 17/05 A3026 RMK AO2
KUOX 162215Z AUTO 36009KT 10SM CLR 18/05 A3026 RMK AO2
KUOX 162155Z AUTO 04008G14KT 10SM CLR 18/04 A3026 RMK AO2
KUOX 162135Z AUTO 36007G13KT 320V020 10SM CLR 19/04 A3026 RMK AO2
KUOX 162115Z AUTO 03010G15KT 10SM CLR 19/04 A3026 RMK AO2
KUOX 162055Z AUTO 36012KT 10SM CLR 19/04 A3026 RMK AO2
KUOX 162035Z AUTO 36009G17KT 10SM CLR 19/04 A3027 RMK AO2
KUOX 162015Z AUTO 02008KT 340V040 10SM CLR 19/04 A3027 RMK AO2
KUOX 161955Z AUTO 03009G16KT 10SM CLR 19/05 A3027 RMK AO2
KUOX 161935Z AUTO 01009KT 340V040 10SM CLR 19/05 A3028 RMK AO2
KUOX 161915Z AUTO 02009KT 9SM CLR 19/05 A3028 RMK AO2
KUOX 161855Z AUTO 03010G15KT 10SM CLR 18/05 A3030 RMK AO2
KUOX 161755Z AUTO 04009KT 10SM CLR 18/05 A3033 RMK AO2
KUOX 161735Z AUTO 36009G16KT 280V040 10SM CLR 17/05 A3034 RMK AO2
KUOX 161715Z AUTO 36010G16KT 340V040 10SM CLR 17/06 A3035 RMK AO2
KUOX 161655Z AUTO 05009G15KT 10SM CLR 16/06 A3035 RMK AO2
KUOX 161635Z AUTO 03011G17KT 10SM CLR 15/06 A3035 RMK AO2
KUOX 161615Z AUTO 04011G19KT 10SM CLR 15/06 A3036 RMK AO2
KUOX 161555Z AUTO 05010G17KT 10SM CLR 14/06 A3036 RMK AO2
KUOX 161535Z AUTO 03012G19KT 10SM CLR 14/06 A3036 RMK AO2
KUOX 161515Z AUTO 02015G21KT 10SM CLR 13/06 A3036 RMK AO2
KUOX 161455Z AUTO 04015KT 10SM CLR 13/07 A3036 RMK AO2
KUOX 161435Z AUTO 03014KT 10SM CLR 12/07 A3036 RMK AO2
KUOX 161415Z AUTO 04006G12KT 10SM CLR 11/07 A3036 RMK AO2